createdAt,value
2022-09-02T00:01:33.067Z,11.40
2022-09-02T00:04:07.269Z,11.40
2022-09-02T00:06:36.316Z,11.30
2022-09-02T00:09:05.996Z,11.30
2022-09-02T00:11:37.853Z,11.20
2022-09-02T00:14:11.036Z,11.20
2022-09-02T00:16:41.942Z,11.10
2022-09-02T00:19:11.146Z,11.10
2022-09-02T00:21:39.573Z,11.00
2022-09-02T00:24:08.949Z,11.00
2022-09-02T00:26:38.907Z,11.00
2022-09-02T00:29:07.785Z,11.00
2022-09-02T00:31:36.996Z,10.90
2022-09-02T00:34:07.193Z,10.90
2022-09-02T00:36:35.693Z,10.90
2022-09-02T00:39:04.983Z,10.90
2022-09-02T00:41:33.961Z,10.80
2022-09-02T00:44:07.005Z,10.80
2022-09-02T00:46:35.776Z,10.80
2022-09-02T00:49:09.618Z,10.80
2022-09-02T00:51:43.450Z,10.70
2022-09-02T00:54:14.242Z,10.70
2022-09-02T00:56:44.864Z,10.60
2022-09-02T00:59:22.228Z,10.60
2022-09-02T01:01:50.750Z,10.60
2022-09-02T01:04:19.298Z,10.50
2022-09-02T01:06:48.003Z,10.50
2022-09-02T01:09:18.742Z,10.40
2022-09-02T01:11:52.789Z,10.40
2022-09-02T01:14:24.185Z,10.30
2022-09-02T01:17:00.723Z,10.30
2022-09-02T01:19:33.632Z,10.20
2022-09-02T01:22:03.888Z,10.20
2022-09-02T01:24:34.777Z,10.20
2022-09-02T01:27:03.303Z,10.10
2022-09-02T01:29:31.696Z,10.10
2022-09-02T01:32:00.832Z,10.10
2022-09-02T01:34:30.303Z,10.10
2022-09-02T01:36:58.807Z,10.00
2022-09-02T01:39:28.614Z,10.00
2022-09-02T01:41:57.065Z,10.00
2022-09-02T01:44:27.714Z,9.90
2022-09-02T01:46:56.766Z,9.90
2022-09-02T01:49:25.745Z,9.90
2022-09-02T01:51:56.793Z,9.80
2022-09-02T01:54:25.453Z,9.80
2022-09-02T01:56:55.365Z,9.70
2022-09-02T01:59:23.703Z,9.70
2022-09-02T02:01:52.310Z,9.70
2022-09-02T02:04:20.705Z,9.60
2022-09-02T02:06:52.283Z,9.60
2022-09-02T02:09:25.144Z,9.60
2022-09-02T02:11:55.344Z,9.50
2022-09-02T02:14:23.884Z,9.50
2022-09-02T02:16:52.543Z,9.50
2022-09-02T02:19:21.132Z,9.40
2022-09-02T02:21:49.483Z,9.40
2022-09-02T02:24:17.946Z,9.40
2022-09-02T02:26:46.364Z,9.40
2022-09-02T02:29:16.853Z,9.30
2022-09-02T02:31:45.520Z,9.30
2022-09-02T02:34:14.406Z,9.30
2022-09-02T02:36:43.444Z,9.30
2022-09-02T02:39:12.503Z,9.20
2022-09-02T02:41:44.939Z,9.20
2022-09-02T02:44:13.717Z,9.10
2022-09-02T02:46:43.655Z,9.10
2022-09-02T02:49:12.204Z,9.10
2022-09-02T02:51:41.126Z,9.10
2022-09-02T02:54:10.515Z,9.00
2022-09-02T02:56:39.908Z,9.00
2022-09-02T02:59:14.948Z,8.90
2022-09-02T03:01:44.811Z,8.90
2022-09-02T03:04:13.252Z,8.80
2022-09-02T03:06:41.822Z,8.80
2022-09-02T03:09:10.254Z,8.80
2022-09-02T03:11:38.914Z,8.80
2022-09-02T03:14:07.694Z,8.80
2022-09-02T03:16:36.863Z,8.70
2022-09-02T03:19:06.982Z,8.70
2022-09-02T03:21:38.923Z,8.70
2022-09-02T03:24:08.367Z,8.70
2022-09-02T03:26:37.003Z,8.70
2022-09-02T03:29:05.991Z,8.70
2022-09-02T03:31:34.645Z,8.60
2022-09-02T03:34:03.633Z,8.60
2022-09-02T03:36:35.652Z,8.60
2022-09-02T03:39:04.984Z,8.60
2022-09-02T03:41:38.462Z,8.60
2022-09-02T03:44:06.875Z,8.50
2022-09-02T03:46:35.822Z,8.50
2022-09-02T03:49:04.304Z,8.40
2022-09-02T03:51:34.222Z,8.40
2022-09-02T03:54:04.134Z,8.40
2022-09-02T03:56:32.502Z,8.40
2022-09-02T03:59:01.584Z,8.30
2022-09-02T04:01:34.958Z,8.30
2022-09-02T04:04:04.143Z,8.30
2022-09-02T04:06:34.403Z,8.30
2022-09-02T04:09:03.547Z,8.20
2022-09-02T04:11:32.050Z,8.20
2022-09-02T04:14:00.604Z,8.20
2022-09-02T04:19:21.885Z,8.20
2022-09-02T04:21:51.807Z,8.10
2022-09-02T04:24:51.750Z,8.10
2022-09-02T04:27:21.104Z,8.10
2022-09-02T04:29:49.456Z,8.00
2022-09-02T04:32:18.076Z,8.00
2022-09-02T04:34:46.484Z,8.00
2022-09-02T04:37:19.911Z,8.00
2022-09-02T04:39:48.323Z,8.00
2022-09-02T04:42:16.633Z,8.00
2022-09-02T04:44:46.587Z,8.00
2022-09-02T04:47:14.896Z,8.00
2022-09-02T04:49:43.533Z,8.00
2022-09-02T04:52:11.883Z,8.00
2022-09-02T04:54:41.644Z,8.00
2022-09-02T04:57:10.064Z,8.00
2022-09-02T04:59:38.499Z,8.00
2022-09-02T05:02:08.724Z,8.00
2022-09-02T05:04:37.952Z,8.00
2022-09-02T05:07:06.263Z,8.00
2022-09-02T05:09:34.824Z,8.00
2022-09-02T05:12:06.044Z,8.00
2022-09-02T05:14:34.454Z,8.10
2022-09-02T05:17:07.492Z,8.20
2022-09-02T05:19:36.515Z,8.30
2022-09-02T05:22:05.114Z,8.50
2022-09-02T05:24:33.691Z,8.70
2022-09-02T05:27:03.706Z,8.90
2022-09-02T05:29:32.095Z,9.20
2022-09-02T05:32:00.652Z,9.40
2022-09-02T05:34:29.095Z,9.70
2022-09-02T05:36:57.465Z,9.90
2022-09-02T05:39:27.233Z,10.20
2022-09-02T05:41:55.691Z,10.50
2022-09-02T05:44:25.373Z,10.80
2022-09-02T05:46:53.914Z,11.00
2022-09-02T05:49:22.743Z,11.30
2022-09-02T05:51:53.164Z,11.60
2022-09-02T05:54:23.155Z,11.90
2022-09-02T05:56:53.858Z,12.20
2022-09-02T05:59:22.925Z,12.50
2022-09-02T06:01:52.769Z,12.80
2022-09-02T06:04:22.696Z,13.10
2022-09-02T06:06:51.652Z,13.50
2022-09-02T06:09:22.543Z,13.70
2022-09-02T06:11:51.801Z,14.00
2022-09-02T06:14:23.024Z,14.30
2022-09-02T06:16:54.948Z,14.60
2022-09-02T06:19:25.345Z,14.90
2022-09-02T06:21:56.051Z,15.10
2022-09-02T06:24:24.662Z,15.40
2022-09-02T06:26:55.741Z,15.60
2022-09-02T06:29:26.065Z,15.90
2022-09-02T06:31:56.290Z,16.10
2022-09-02T06:34:27.303Z,16.50
2022-09-02T06:36:55.674Z,16.70
2022-09-02T06:39:26.056Z,17.00
2022-09-02T06:41:54.446Z,17.30
2022-09-02T06:44:24.073Z,17.60
2022-09-02T06:46:58.583Z,18.00
2022-09-02T06:49:28.543Z,18.40
2022-09-02T06:51:57.563Z,19.00
2022-09-02T06:54:26.432Z,19.60
2022-09-02T06:56:55.045Z,20.00
2022-09-02T06:59:23.742Z,20.50
2022-09-02T07:01:52.872Z,20.80
2022-09-02T07:04:40.085Z,20.90
2022-09-02T07:07:12.070Z,21.00
2022-09-02T07:09:41.283Z,21.30
2022-09-02T07:12:10.211Z,21.30
2022-09-02T07:14:39.142Z,21.00
2022-09-02T07:17:08.675Z,21.00
2022-09-02T07:19:38.702Z,20.80
2022-09-02T07:22:07.682Z,20.30
2022-09-02T07:24:36.511Z,20.20
2022-09-02T07:27:05.979Z,20.30
2022-09-02T07:29:35.367Z,20.30
2022-09-02T07:32:03.895Z,20.20
2022-09-02T07:34:32.361Z,20.10
2022-09-02T07:37:06.157Z,20.00
2022-09-02T07:39:34.704Z,20.10
2022-09-02T07:42:03.241Z,20.10
2022-09-02T07:44:32.502Z,19.80
2022-09-02T07:47:00.974Z,20.00
2022-09-02T07:50:15.312Z,20.20
2022-09-02T07:52:19.234Z,20.30
2022-09-02T07:54:47.564Z,20.30
2022-09-02T07:57:15.933Z,20.40
2022-09-02T07:59:46.297Z,20.40
2022-09-02T08:02:15.920Z,20.80
2022-09-02T08:04:44.344Z,21.40
2022-09-02T08:07:13.533Z,21.60
2022-09-02T08:09:43.443Z,21.40
2022-09-02T08:12:11.757Z,21.60
2022-09-02T08:14:40.253Z,22.00
2022-09-02T08:17:08.600Z,22.10
2022-09-02T08:19:37.462Z,22.10
2022-09-02T08:22:06.704Z,22.50
2022-09-02T08:24:35.884Z,22.50
2022-09-02T08:27:05.864Z,22.40
2022-09-02T08:29:34.211Z,22.30
2022-09-02T08:32:06.305Z,22.50
2022-09-02T08:34:35.092Z,22.60
2022-09-02T08:37:03.483Z,22.80
2022-09-02T08:39:31.921Z,23.10
2022-09-02T08:42:10.251Z,23.10
2022-09-02T08:44:41.217Z,23.10
2022-09-02T08:47:14.778Z,23.30
2022-09-02T08:49:46.672Z,23.50
2022-09-02T08:52:21.393Z,23.50
2022-09-02T08:54:55.634Z,23.60
2022-09-02T08:57:27.127Z,23.80
2022-09-02T08:59:59.122Z,24.00
2022-09-02T09:02:38.025Z,23.90
2022-09-02T09:05:21.063Z,23.70
2022-09-02T09:08:02.843Z,23.90
2022-09-02T09:10:39.496Z,23.60
2022-09-02T09:13:31.043Z,23.50
2022-09-02T09:16:08.153Z,23.90
2022-09-02T09:18:40.614Z,24.00
2022-09-02T09:21:11.270Z,24.20
2022-09-02T09:23:41.629Z,23.90
2022-09-02T09:26:11.992Z,23.60
2022-09-02T09:28:43.657Z,23.80
2022-09-02T09:31:15.036Z,24.00
2022-09-02T09:33:57.124Z,24.10
2022-09-02T09:36:49.772Z,24.30
2022-09-02T09:39:30.204Z,24.40
2022-09-02T09:42:01.764Z,24.20
2022-09-02T09:44:40.047Z,24.30
2022-09-02T09:47:13.650Z,24.60
2022-09-02T09:49:45.834Z,24.50
2022-09-02T09:52:24.722Z,24.50
2022-09-02T09:55:24.465Z,24.40
2022-09-02T09:57:54.158Z,24.70
2022-09-02T10:00:29.340Z,25.00
2022-09-02T10:03:00.412Z,25.20
2022-09-02T10:05:34.796Z,25.00
2022-09-02T10:08:10.090Z,25.40
2022-09-02T10:10:58.152Z,25.80
2022-09-02T10:13:29.282Z,26.20
2022-09-02T10:16:34.050Z,26.40
2022-09-02T10:19:11.516Z,26.40
2022-09-02T10:21:57.324Z,26.30
2022-09-02T10:24:47.077Z,26.00
2022-09-02T10:27:24.113Z,26.20
2022-09-02T10:30:00.343Z,26.30
2022-09-02T10:32:52.053Z,26.20
2022-09-02T10:35:26.692Z,26.50
2022-09-02T10:38:09.193Z,26.20
2022-09-02T10:40:44.684Z,25.90
2022-09-02T10:43:28.230Z,26.20
2022-09-02T10:46:01.352Z,26.70
2022-09-02T10:48:39.376Z,26.50
2022-09-02T10:51:13.773Z,27.00
2022-09-02T10:54:10.007Z,27.30
2022-09-02T10:56:45.371Z,27.40
2022-09-02T10:59:21.692Z,27.00
2022-09-02T11:01:56.430Z,26.90
2022-09-02T11:04:39.081Z,26.50
2022-09-02T11:07:13.159Z,25.80
2022-09-02T11:09:47.359Z,25.40
2022-09-02T11:12:19.850Z,25.40
2022-09-02T11:15:04.921Z,25.70
2022-09-02T11:17:40.144Z,26.20
2022-09-02T11:20:18.532Z,26.40
2022-09-02T11:22:54.634Z,26.30
2022-09-02T11:25:26.411Z,26.00
2022-09-02T11:28:05.940Z,25.40
2022-09-02T11:30:45.006Z,24.80
2022-09-02T11:33:21.332Z,24.50
2022-09-02T11:35:51.252Z,24.80
2022-09-02T11:38:33.141Z,25.30
2022-09-02T11:41:35.176Z,25.70
2022-09-02T11:44:27.040Z,26.00
2022-09-02T11:47:10.206Z,25.60
2022-09-02T11:50:17.416Z,25.70
2022-09-02T11:53:05.590Z,26.10
2022-09-02T11:55:38.624Z,26.00
2022-09-02T11:58:07.291Z,25.80
2022-09-02T12:00:37.733Z,25.70
2022-09-02T12:03:40.969Z,25.60
2022-09-02T12:06:14.302Z,25.30
2022-09-02T12:09:05.910Z,25.20
2022-09-02T12:11:51.351Z,25.20
2022-09-02T12:15:11.677Z,25.70
2022-09-02T12:17:59.272Z,26.20
2022-09-02T12:21:07.280Z,26.10
2022-09-02T12:24:25.562Z,25.90
2022-09-02T12:27:28.673Z,25.70
2022-09-02T12:29:58.832Z,25.60
2022-09-02T12:33:08.110Z,25.50
2022-09-02T12:35:54.820Z,25.40
2022-09-02T12:38:40.309Z,25.20
2022-09-02T12:41:22.102Z,25.10
2022-09-02T12:44:24.810Z,25.10
2022-09-02T12:47:01.877Z,24.80
2022-09-02T12:49:48.495Z,24.80
2022-09-02T12:52:42.659Z,24.90
2022-09-02T12:55:17.771Z,25.00
2022-09-02T12:57:49.869Z,25.00
2022-09-02T13:00:32.653Z,25.20
2022-09-02T13:03:18.143Z,25.00
2022-09-02T13:05:57.072Z,25.10
2022-09-02T13:09:14.802Z,24.90
2022-09-02T13:12:17.173Z,24.70
2022-09-02T13:15:02.404Z,24.80
2022-09-02T13:17:55.106Z,24.70
2022-09-02T13:20:44.830Z,24.90
2022-09-02T13:23:42.671Z,25.40
2022-09-02T13:26:48.886Z,25.60
2022-09-02T13:29:56.385Z,25.30
2022-09-02T13:32:27.021Z,25.20
2022-09-02T13:35:01.399Z,25.00
2022-09-02T13:37:36.720Z,24.90
2022-09-02T13:40:17.887Z,24.70
2022-09-02T13:42:50.121Z,24.50
2022-09-02T13:45:20.289Z,24.60
2022-09-02T13:47:51.773Z,24.80
2022-09-02T13:50:23.400Z,25.00
2022-09-02T13:55:49.912Z,25.20
2022-09-02T13:58:32.763Z,25.80
2022-09-02T14:01:24.082Z,26.40
2022-09-02T14:03:54.409Z,26.30
2022-09-02T14:06:26.792Z,26.20
2022-09-02T14:08:58.721Z,25.70
2022-09-02T14:11:28.922Z,25.70
2022-09-02T14:13:58.210Z,25.60
2022-09-02T14:16:29.442Z,25.60
2022-09-02T14:19:14.672Z,25.50
2022-09-02T14:21:50.108Z,25.50
2022-09-02T14:24:23.175Z,25.30
2022-09-02T14:26:54.142Z,25.20
2022-09-02T14:29:23.209Z,25.00
2022-09-02T14:32:11.191Z,25.00
2022-09-02T14:34:41.523Z,24.70
2022-09-02T14:37:23.664Z,24.70
2022-09-02T14:40:08.610Z,24.50
2022-09-02T14:42:50.889Z,24.40
2022-09-02T14:45:28.491Z,24.30
2022-09-02T14:47:59.753Z,24.10
2022-09-02T14:50:32.713Z,24.10
2022-09-02T14:53:07.305Z,24.10
2022-09-02T14:55:47.291Z,24.10
2022-09-02T14:58:16.949Z,24.10
2022-09-02T15:00:48.374Z,23.90
2022-09-02T15:03:17.781Z,24.00
2022-09-02T15:05:46.451Z,24.00
2022-09-02T15:08:17.524Z,24.00
2022-09-02T15:10:47.311Z,24.20
2022-09-02T15:13:21.605Z,24.20
2022-09-02T15:15:51.526Z,24.50
2022-09-02T15:18:20.205Z,25.10
2022-09-02T15:20:48.777Z,26.00
2022-09-02T15:23:18.793Z,26.20
2022-09-02T15:25:47.491Z,26.10
2022-09-02T15:28:16.056Z,25.60
2022-09-02T15:30:44.516Z,25.30
2022-09-02T15:33:16.691Z,25.10
2022-09-02T15:35:47.278Z,24.80
2022-09-02T15:38:15.904Z,24.70
2022-09-02T15:40:46.221Z,24.90
2022-09-02T15:43:14.691Z,25.40
2022-09-02T15:45:47.202Z,25.50
2022-09-02T15:48:15.870Z,25.30
2022-09-02T15:50:45.597Z,24.90
2022-09-02T15:53:16.073Z,24.60
2022-09-02T15:55:45.984Z,24.80
2022-09-02T15:58:15.694Z,24.80
2022-09-02T16:00:44.127Z,24.80
2022-09-02T16:03:12.755Z,24.80
2022-09-02T16:05:43.279Z,24.80
2022-09-02T16:08:12.691Z,25.20
2022-09-02T16:10:41.453Z,25.50
2022-09-02T16:13:11.212Z,25.50
2022-09-02T16:15:39.831Z,25.50
2022-09-02T16:18:08.329Z,25.40
2022-09-02T16:20:36.875Z,25.60
2022-09-02T16:23:05.442Z,25.50
2022-09-02T16:25:33.770Z,25.40
2022-09-02T16:28:02.571Z,25.30
2022-09-02T16:30:32.642Z,25.30
2022-09-02T16:33:01.042Z,25.20
2022-09-02T16:35:29.583Z,25.00
2022-09-02T16:37:57.922Z,24.90
2022-09-02T16:40:26.332Z,24.80
2022-09-02T16:42:54.602Z,24.50
2022-09-02T16:45:23.091Z,24.40
2022-09-02T16:47:53.053Z,24.40
2022-09-02T16:50:21.535Z,24.20
2022-09-02T16:52:50.583Z,24.00
2022-09-02T16:55:19.022Z,23.90
2022-09-02T16:57:47.752Z,23.80
2022-09-02T17:00:17.832Z,23.70
2022-09-02T17:02:46.648Z,23.60
2022-09-02T17:05:17.561Z,23.60
2022-09-02T17:07:46.810Z,23.50
2022-09-02T17:10:15.153Z,23.50
2022-09-02T17:12:43.572Z,23.50
2022-09-02T17:15:12.471Z,23.40
2022-09-02T17:17:42.389Z,23.40
2022-09-02T17:20:13.252Z,23.40
2022-09-02T17:22:44.143Z,23.30
2022-09-02T17:25:12.861Z,23.30
2022-09-02T17:27:43.625Z,23.30
2022-09-02T17:30:13.562Z,23.20
2022-09-02T17:32:42.831Z,23.10
2022-09-02T17:35:12.733Z,23.10
2022-09-02T17:37:42.764Z,23.10
2022-09-02T17:40:33.192Z,23.00
2022-09-02T17:43:00.685Z,23.00
2022-09-02T17:45:29.071Z,22.90
2022-09-02T17:47:59.309Z,22.80
2022-09-02T17:50:37.981Z,22.80
2022-09-02T17:53:08.000Z,22.70
2022-09-02T17:55:36.333Z,22.70
2022-09-02T17:58:09.254Z,22.60
2022-09-02T18:00:46.737Z,22.50
2022-09-02T18:03:32.121Z,22.40
2022-09-02T18:06:19.516Z,22.30
2022-09-02T18:08:57.545Z,22.20
2022-09-02T18:11:26.692Z,22.10
2022-09-02T18:14:07.224Z,22.00
2022-09-02T18:16:49.463Z,21.90
2022-09-02T18:19:36.581Z,21.80
2022-09-02T18:22:16.576Z,21.70
2022-09-02T18:25:00.311Z,21.50
2022-09-02T18:27:40.726Z,21.50
2022-09-02T18:30:11.736Z,21.40
2022-09-02T18:33:02.894Z,21.30
2022-09-02T18:35:41.094Z,21.20
2022-09-02T18:38:20.324Z,21.10
2022-09-02T18:41:03.599Z,21.00
2022-09-02T18:43:43.573Z,20.90
2022-09-02T18:46:14.344Z,20.80
2022-09-02T18:48:46.736Z,20.70
2022-09-02T18:51:27.848Z,20.60
2022-09-02T18:54:00.200Z,20.50
2022-09-02T18:56:34.631Z,20.40
2022-09-02T18:59:10.987Z,20.30
2022-09-02T19:01:45.142Z,20.20
2022-09-02T19:04:14.471Z,20.10
2022-09-02T19:06:43.079Z,20.10
2022-09-02T19:09:14.012Z,20.00
2022-09-02T19:11:44.112Z,19.90
2022-09-02T19:14:26.351Z,19.70
2022-09-02T19:16:55.589Z,19.60
2022-09-02T19:19:24.378Z,19.60
2022-09-02T19:21:55.550Z,19.50
2022-09-02T19:24:31.601Z,19.40
2022-09-02T19:27:06.035Z,19.30
2022-09-02T19:29:36.205Z,19.20
2022-09-02T19:32:05.951Z,19.20
2022-09-02T19:34:37.058Z,19.10
2022-09-02T19:37:06.243Z,19.00
2022-09-02T19:39:35.326Z,18.90
2022-09-02T19:42:06.714Z,18.90
2022-09-02T19:44:35.622Z,18.80
2022-09-02T19:47:49.789Z,18.70
2022-09-02T19:49:53.012Z,18.70
2022-09-02T19:52:21.726Z,18.60
2022-09-02T19:54:51.003Z,18.50
2022-09-02T19:57:21.244Z,18.50
2022-09-02T19:59:49.742Z,18.40
2022-09-02T20:02:18.587Z,18.30
2022-09-02T20:04:47.812Z,18.30
2022-09-02T20:07:16.810Z,18.20
2022-09-02T20:09:45.943Z,18.10
2022-09-02T20:12:16.434Z,18.10
2022-09-02T20:14:46.583Z,18.10
2022-09-02T20:17:20.231Z,18.00
2022-09-02T20:19:49.780Z,17.90
2022-09-02T20:22:20.373Z,17.90
2022-09-02T20:24:48.964Z,17.80
2022-09-02T20:27:31.131Z,17.70
2022-09-02T20:30:08.165Z,17.70
2022-09-02T20:32:58.654Z,17.70
2022-09-02T20:35:58.192Z,17.60
2022-09-02T20:39:03.946Z,17.50
2022-09-02T20:41:39.470Z,17.40
2022-09-02T20:44:34.602Z,17.40
2022-09-02T20:47:21.566Z,17.30
2022-09-02T20:50:05.271Z,17.30
2022-09-02T20:52:46.993Z,17.20
2022-09-02T20:55:21.543Z,17.20
2022-09-02T20:58:19.451Z,17.10
2022-09-02T21:01:03.698Z,17.00
2022-09-02T21:03:46.512Z,17.00
2022-09-02T21:06:16.605Z,17.00
2022-09-02T21:08:55.331Z,16.90
2022-09-02T21:11:29.544Z,16.90
2022-09-02T21:14:05.205Z,16.80
2022-09-02T21:16:37.756Z,16.80
2022-09-02T21:19:14.704Z,16.70
2022-09-02T21:21:50.294Z,16.60
2022-09-02T21:24:25.483Z,16.60
2022-09-02T21:27:00.796Z,16.50
2022-09-02T21:29:33.735Z,16.50
2022-09-02T21:32:09.797Z,16.40
2022-09-02T21:34:44.841Z,16.40
2022-09-02T21:37:16.863Z,16.30
2022-09-02T21:39:54.832Z,16.20
2022-09-02T21:42:34.611Z,16.10
2022-09-02T21:45:12.282Z,16.10
2022-09-02T21:47:51.994Z,16.00
2022-09-02T21:50:29.767Z,15.90
2022-09-02T21:53:05.059Z,15.90
2022-09-02T21:55:53.600Z,15.80
2022-09-02T21:58:43.748Z,15.80
2022-09-02T22:01:20.726Z,15.70
2022-09-02T22:03:54.026Z,15.70
2022-09-02T22:06:34.590Z,15.60
2022-09-02T22:09:08.825Z,15.50
2022-09-02T22:11:41.204Z,15.50
2022-09-02T22:14:15.633Z,15.50
2022-09-02T22:16:53.758Z,15.40
2022-09-02T22:19:23.985Z,15.30
2022-09-02T22:21:57.933Z,15.30
2022-09-02T22:24:31.259Z,15.20
2022-09-02T22:27:06.022Z,15.10
2022-09-02T22:29:40.364Z,15.10
2022-09-02T22:32:11.594Z,15.00
2022-09-02T22:34:46.884Z,15.00
2022-09-02T22:37:23.233Z,14.90
2022-09-02T22:39:54.307Z,14.90
2022-09-02T22:42:32.765Z,14.80
2022-09-02T22:45:23.634Z,14.80
2022-09-02T22:48:14.364Z,14.70
2022-09-02T22:51:06.124Z,14.70
2022-09-02T22:53:36.006Z,14.60
2022-09-02T22:56:09.746Z,14.50
2022-09-02T22:58:55.824Z,14.40
2022-09-02T23:01:35.689Z,14.40
2022-09-02T23:04:19.285Z,14.40
2022-09-02T23:06:47.682Z,14.30
2022-09-02T23:09:18.596Z,14.20
2022-09-02T23:11:57.389Z,14.10
2022-09-02T23:14:38.727Z,14.10
2022-09-02T23:17:23.845Z,14.10
2022-09-02T23:20:01.940Z,14.10
2022-09-02T23:22:42.555Z,14.10
2022-09-02T23:25:30.864Z,14.10
2022-09-02T23:28:10.029Z,14.00
2022-09-02T23:30:46.135Z,14.00
2022-09-02T23:33:30.074Z,14.00
2022-09-02T23:36:10.203Z,13.90
2022-09-02T23:38:56.942Z,13.90
2022-09-02T23:41:27.504Z,13.80
2022-09-02T23:43:56.107Z,13.80
2022-09-02T23:46:34.917Z,13.80
2022-09-02T23:49:11.534Z,13.80
2022-09-02T23:51:48.435Z,13.70
2022-09-02T23:54:42.517Z,13.70
2022-09-02T23:57:40.563Z,13.60
